createdAt,value
2022-10-12T00:01:07.106Z,7.05
2022-10-12T00:03:35.047Z,8.20
2022-10-12T00:06:11.159Z,7.50
2022-10-12T00:08:39.355Z,7.72
2022-10-12T00:11:07.456Z,8.10
2022-10-12T00:13:34.032Z,7.88
2022-10-12T00:16:05.856Z,7.47
2022-10-12T00:18:34.034Z,8.10
2022-10-12T00:21:06.735Z,8.02
2022-10-12T00:23:35.258Z,7.57
2022-10-12T00:26:04.638Z,8.15
2022-10-12T00:28:31.747Z,8.48
2022-10-12T00:30:58.776Z,8.18
2022-10-12T00:33:25.317Z,8.55
2022-10-12T00:35:54.834Z,8.20
2022-10-12T00:38:22.535Z,8.38
2022-10-12T00:40:49.124Z,8.23
2022-10-12T00:43:29.601Z,7.80
2022-10-12T00:45:57.482Z,7.38
2022-10-12T00:48:24.547Z,7.80
2022-10-12T00:50:52.177Z,7.53
2022-10-12T00:53:22.846Z,7.85
2022-10-12T00:55:54.173Z,7.55
2022-10-12T00:58:21.716Z,8.00
2022-10-12T01:00:48.637Z,8.18
2022-10-12T01:03:20.270Z,8.30
2022-10-12T01:05:47.093Z,7.82
2022-10-12T01:08:16.118Z,8.13
2022-10-12T01:10:42.825Z,7.70
2022-10-12T01:13:09.420Z,8.45
2022-10-12T01:15:48.493Z,8.98
2022-10-12T01:18:43.558Z,8.13
2022-10-12T01:21:17.268Z,8.45
2022-10-12T01:24:14.922Z,8.48
2022-10-12T01:27:03.195Z,8.05
2022-10-12T01:30:07.328Z,8.57
2022-10-12T01:32:36.759Z,7.57
2022-10-12T01:35:28.950Z,8.60
2022-10-12T01:38:24.423Z,7.50
2022-10-12T01:40:56.871Z,8.32
2022-10-12T01:43:23.856Z,8.80
2022-10-12T01:45:50.626Z,8.05
2022-10-12T01:48:17.803Z,8.23
2022-10-12T01:50:53.829Z,7.97
2022-10-12T01:53:29.333Z,8.20
2022-10-12T01:56:21.511Z,9.15
2022-10-12T01:59:04.385Z,8.93
2022-10-12T02:01:57.829Z,9.10
2022-10-12T02:04:34.934Z,8.32
2022-10-12T02:07:07.800Z,8.13
2022-10-12T02:09:35.981Z,9.25
2022-10-12T02:12:09.101Z,8.85
2022-10-12T02:14:40.737Z,9.40
2022-10-12T02:17:11.862Z,9.02
2022-10-12T02:19:55.050Z,8.85
2022-10-12T02:22:23.547Z,9.38
2022-10-12T02:24:52.441Z,9.13
2022-10-12T02:27:21.275Z,8.85
2022-10-12T02:29:48.519Z,8.93
2022-10-12T02:32:35.627Z,9.30
2022-10-12T02:35:10.462Z,9.45
2022-10-12T02:38:20.941Z,9.60
2022-10-12T02:41:02.117Z,9.05
2022-10-12T02:43:33.058Z,10.43
2022-10-12T02:48:29.114Z,10.55
2022-10-12T02:50:57.933Z,10.90
2022-10-12T02:53:27.771Z,10.05
2022-10-12T02:56:01.857Z,11.07
2022-10-12T02:58:28.361Z,10.40
2022-10-12T03:00:54.861Z,10.68
2022-10-12T03:03:21.414Z,10.23
2022-10-12T03:05:47.871Z,9.82
2022-10-12T03:08:14.320Z,9.82
2022-10-12T03:10:40.756Z,10.55
2022-10-12T03:13:07.166Z,10.18
2022-10-12T03:15:36.039Z,10.23
2022-10-12T03:18:02.555Z,10.35
2022-10-12T03:20:29.048Z,10.95
2022-10-12T03:22:55.914Z,10.80
2022-10-12T03:25:22.821Z,10.18
2022-10-12T03:27:49.236Z,10.45
2022-10-12T03:30:15.783Z,10.40
2022-10-12T03:32:42.318Z,10.55
2022-10-12T03:35:09.254Z,10.70
2022-10-12T03:37:35.973Z,10.52
2022-10-12T03:40:03.324Z,10.60
2022-10-12T03:42:29.832Z,10.98
2022-10-12T03:44:56.395Z,9.95
2022-10-12T03:47:22.945Z,10.35
2022-10-12T03:49:49.472Z,11.25
2022-10-12T03:52:15.996Z,10.98
2022-10-12T03:54:42.485Z,11.18
2022-10-12T03:57:08.961Z,11.40
2022-10-12T03:59:35.410Z,10.15
2022-10-12T04:02:02.513Z,11.10
2022-10-12T04:04:28.917Z,11.20
2022-10-12T04:06:55.416Z,10.05
2022-10-12T04:09:21.924Z,17.30
2022-10-12T04:11:48.421Z,16.17
2022-10-12T04:14:14.837Z,13.88
2022-10-12T04:16:41.258Z,17.10
2022-10-12T04:19:13.990Z,13.93
2022-10-12T04:21:40.992Z,13.75
2022-10-12T04:24:07.901Z,13.23
2022-10-12T04:26:34.425Z,12.30
2022-10-12T04:29:00.997Z,11.57
2022-10-12T04:31:27.585Z,11.02
2022-10-12T04:33:56.869Z,10.48
2022-10-12T04:36:24.556Z,10.13
2022-10-12T04:38:51.310Z,10.63
2022-10-12T04:41:17.857Z,11.32
2022-10-12T04:43:44.451Z,10.55
2022-10-12T04:46:11.512Z,12.82
2022-10-12T04:48:38.321Z,16.00
2022-10-12T04:51:06.167Z,9.93
2022-10-12T04:53:33.023Z,10.35
2022-10-12T04:56:03.541Z,9.88
2022-10-12T04:58:30.069Z,10.63
2022-10-12T05:00:56.907Z,13.18
2022-10-12T05:03:24.132Z,11.43
2022-10-12T05:05:51.266Z,10.35
2022-10-12T05:08:17.960Z,9.73
2022-10-12T05:10:46.168Z,10.00
2022-10-12T05:13:13.760Z,9.98
2022-10-12T05:15:42.551Z,9.02
2022-10-12T05:18:09.502Z,9.27
2022-10-12T05:20:36.216Z,9.70
2022-10-12T05:23:02.852Z,9.07
2022-10-12T05:25:29.688Z,10.05
2022-10-12T05:27:57.194Z,10.57
2022-10-12T05:30:24.585Z,9.75
2022-10-12T05:32:51.108Z,9.93
2022-10-12T05:35:17.756Z,9.75
2022-10-12T05:37:44.429Z,9.55
2022-10-12T05:40:11.563Z,9.63
2022-10-12T05:42:38.512Z,9.13
2022-10-12T05:45:06.206Z,9.68
2022-10-12T05:47:32.728Z,9.93
2022-10-12T05:49:59.261Z,10.07
2022-10-12T05:52:25.816Z,9.70
2022-10-12T05:54:52.348Z,10.48
2022-10-12T05:57:19.521Z,9.75
2022-10-12T05:59:46.326Z,9.52
2022-10-12T06:02:18.961Z,10.10
2022-10-12T06:04:45.597Z,9.68
2022-10-12T06:07:12.334Z,9.98
2022-10-12T06:09:39.039Z,10.07
2022-10-12T06:12:07.751Z,9.55
2022-10-12T06:14:34.267Z,9.38
2022-10-12T06:17:07.865Z,10.10
2022-10-12T06:19:34.442Z,9.45
2022-10-12T06:22:01.122Z,9.15
2022-10-12T06:24:27.670Z,9.70
2022-10-12T06:26:54.173Z,9.43
2022-10-12T06:29:23.353Z,9.40
2022-10-12T06:31:51.952Z,9.38
2022-10-12T06:34:18.743Z,8.82
2022-10-12T06:36:45.343Z,8.70
2022-10-12T06:39:12.014Z,8.43
2022-10-12T06:41:39.095Z,9.30
2022-10-12T06:44:05.708Z,9.38
2022-10-12T06:46:32.228Z,11.70
2022-10-12T06:48:58.715Z,9.15
2022-10-12T06:51:25.324Z,8.98
2022-10-12T06:53:55.369Z,9.00
2022-10-12T06:56:22.074Z,9.15
2022-10-12T06:58:53.971Z,9.38
2022-10-12T07:01:20.467Z,8.98
2022-10-12T07:03:46.968Z,9.23
2022-10-12T07:06:14.584Z,8.98
2022-10-12T07:08:42.070Z,23.85
2022-10-12T07:11:11.773Z,8.77
2022-10-12T07:13:38.857Z,8.23
2022-10-12T07:16:05.776Z,8.65
2022-10-12T07:18:32.588Z,8.98
2022-10-12T07:20:59.885Z,8.70
2022-10-12T07:23:27.796Z,9.73
2022-10-12T07:25:54.722Z,9.43
2022-10-12T07:28:22.211Z,9.20
2022-10-12T07:30:48.971Z,9.88
2022-10-12T07:33:16.090Z,9.20
2022-10-12T07:36:03.259Z,8.90
2022-10-12T07:38:29.815Z,8.77
2022-10-12T07:40:59.991Z,8.32
2022-10-12T07:43:27.161Z,9.38
2022-10-12T07:45:53.669Z,9.90
2022-10-12T07:48:20.879Z,8.63
2022-10-12T07:50:47.670Z,9.82
2022-10-12T07:53:14.284Z,9.45
2022-10-12T07:55:41.108Z,8.82
2022-10-12T07:58:11.893Z,9.27
2022-10-12T08:00:38.637Z,10.35
2022-10-12T08:03:05.172Z,8.98
2022-10-12T08:05:31.696Z,8.90
2022-10-12T08:08:00.246Z,10.13
2022-10-12T08:10:27.049Z,9.07
2022-10-12T08:12:53.640Z,9.55
2022-10-12T08:15:20.641Z,9.00
2022-10-12T08:17:47.336Z,8.90
2022-10-12T08:20:16.438Z,8.73
2022-10-12T08:22:43.101Z,9.65
2022-10-12T08:25:09.623Z,9.25
2022-10-12T08:27:38.454Z,9.23
2022-10-12T08:30:06.655Z,9.00
2022-10-12T08:32:33.359Z,8.93
2022-10-12T08:35:00.449Z,9.48
2022-10-12T08:37:27.066Z,9.27
2022-10-12T08:39:53.745Z,9.10
2022-10-12T08:42:55.528Z,9.45
2022-10-12T08:45:41.544Z,9.60
2022-10-12T08:48:12.257Z,9.48
2022-10-12T08:53:26.264Z,8.52
2022-10-12T08:55:53.010Z,8.98
2022-10-12T08:58:23.232Z,8.77
2022-10-12T09:00:59.862Z,9.02
2022-10-12T09:03:40.425Z,8.93
2022-10-12T09:06:14.145Z,10.60
2022-10-12T09:09:03.055Z,9.52
2022-10-12T09:11:38.896Z,9.23
2022-10-12T09:14:06.999Z,8.52
2022-10-12T09:16:39.430Z,9.10
2022-10-12T09:19:18.969Z,9.02
2022-10-12T09:21:48.510Z,9.30
2022-10-12T09:24:41.994Z,9.10
2022-10-12T09:27:20.172Z,8.32
2022-10-12T09:29:55.339Z,9.40
2022-10-12T09:32:49.124Z,9.13
2022-10-12T09:35:16.158Z,9.23
2022-10-12T09:37:52.897Z,10.00
2022-10-12T09:40:30.486Z,9.82
2022-10-12T09:43:03.160Z,9.25
2022-10-12T09:45:35.083Z,9.35
2022-10-12T09:48:10.683Z,9.43
2022-10-12T09:50:44.692Z,9.25
2022-10-12T09:53:27.471Z,9.85
2022-10-12T09:56:28.971Z,9.18
2022-10-12T09:59:08.300Z,9.55
2022-10-12T10:01:36.260Z,8.93
2022-10-12T10:04:24.079Z,9.10
2022-10-12T10:06:51.137Z,9.75
2022-10-12T10:09:26.795Z,9.60
2022-10-12T10:11:53.588Z,9.40
2022-10-12T10:14:20.150Z,10.05
2022-10-12T10:16:51.668Z,10.13
2022-10-12T10:19:21.783Z,10.07
2022-10-12T10:21:48.418Z,10.00
2022-10-12T10:24:35.377Z,9.75
2022-10-12T10:27:04.806Z,9.65
2022-10-12T10:29:41.674Z,10.25
2022-10-12T10:32:15.750Z,9.90
2022-10-12T10:34:45.912Z,10.20
2022-10-12T10:37:23.162Z,11.30
2022-10-12T10:42:23.340Z,9.32
2022-10-12T10:44:53.355Z,10.52
2022-10-12T10:47:20.036Z,10.65
2022-10-12T10:49:52.133Z,11.02
2022-10-12T10:52:25.857Z,11.73
2022-10-12T10:55:10.575Z,10.82
2022-10-12T10:57:41.304Z,11.63
2022-10-12T11:00:37.947Z,11.15
2022-10-12T11:03:31.296Z,11.43
2022-10-12T11:06:14.212Z,11.38
2022-10-12T11:08:43.668Z,12.27
2022-10-12T11:11:18.806Z,11.82
2022-10-12T11:13:55.748Z,11.65
2022-10-12T11:16:43.725Z,11.50
2022-10-12T11:19:34.177Z,11.70
2022-10-12T11:22:06.097Z,12.80
2022-10-12T11:24:44.041Z,11.90
2022-10-12T11:27:33.939Z,16.27
2022-10-12T11:30:11.645Z,12.57
2022-10-12T11:32:49.813Z,11.57
2022-10-12T11:35:30.375Z,12.02
2022-10-12T11:38:21.414Z,15.63
2022-10-12T11:41:31.211Z,12.30
2022-10-12T11:44:04.002Z,12.68
2022-10-12T11:46:38.592Z,12.85
2022-10-12T11:49:20.793Z,11.90
2022-10-12T11:51:50.501Z,12.95
2022-10-12T11:54:40.318Z,12.30
2022-10-12T11:57:17.695Z,13.13
2022-10-12T11:59:54.887Z,12.88
2022-10-12T12:02:38.163Z,13.20
2022-10-12T12:05:21.707Z,13.00
2022-10-12T12:11:25.231Z,13.05
2022-10-12T12:14:21.241Z,12.90
2022-10-12T12:16:49.678Z,12.85
2022-10-12T12:19:37.045Z,13.38
2022-10-12T12:22:17.044Z,13.65
2022-10-12T12:24:58.041Z,13.13
2022-10-12T12:27:32.639Z,13.65
2022-10-12T12:30:02.095Z,13.40
2022-10-12T12:32:52.271Z,13.32
2022-10-12T12:35:24.400Z,12.93
2022-10-12T12:38:20.736Z,13.38
2022-10-12T12:41:17.742Z,14.30
2022-10-12T12:43:56.415Z,12.60
2022-10-12T12:46:25.593Z,13.63
2022-10-12T12:48:52.708Z,12.55
2022-10-12T12:51:45.969Z,12.70
2022-10-12T12:54:20.631Z,12.48
2022-10-12T12:57:06.146Z,11.93
2022-10-12T13:00:06.791Z,12.73
2022-10-12T13:02:53.332Z,11.50
2022-10-12T13:06:00.049Z,13.35
2022-10-12T13:08:41.675Z,12.60
2022-10-12T13:11:45.747Z,12.77
2022-10-12T13:14:43.443Z,12.73
2022-10-12T13:17:54.330Z,12.65
2022-10-12T13:20:29.050Z,10.95
2022-10-12T13:23:02.996Z,12.07
2022-10-12T13:25:56.238Z,12.20
2022-10-12T13:28:28.797Z,10.82
2022-10-12T13:31:00.207Z,11.60
2022-10-12T13:33:39.590Z,12.30
2022-10-12T13:36:13.320Z,12.40
2022-10-12T13:38:40.535Z,11.90
2022-10-12T13:41:12.136Z,11.13
2022-10-12T13:43:46.613Z,10.95
2022-10-12T13:46:37.659Z,11.80
2022-10-12T13:49:17.677Z,11.77
2022-10-12T13:51:48.216Z,12.70
2022-10-12T13:57:01.288Z,11.50
2022-10-12T13:59:33.459Z,11.45
2022-10-12T14:02:02.299Z,11.18
2022-10-12T14:04:35.138Z,9.85
2022-10-12T14:07:07.439Z,10.75
2022-10-12T14:09:43.533Z,11.70
2022-10-12T14:12:11.446Z,11.75
2022-10-12T14:14:42.860Z,11.30
2022-10-12T14:17:20.894Z,12.10
2022-10-12T14:19:58.895Z,17.02
2022-10-12T14:22:29.598Z,10.57
2022-10-12T14:25:08.501Z,10.82
2022-10-12T14:27:38.908Z,11.63
2022-10-12T14:30:23.400Z,11.00
2022-10-12T14:32:53.938Z,10.40
2022-10-12T14:35:26.513Z,11.98
2022-10-12T14:37:54.974Z,11.98
2022-10-12T14:40:39.207Z,11.55
2022-10-12T14:43:21.248Z,11.60
2022-10-12T14:45:47.857Z,11.93
2022-10-12T14:48:18.999Z,11.70
2022-10-12T14:50:46.483Z,11.63
2022-10-12T14:53:14.776Z,13.80
2022-10-12T14:55:42.586Z,14.50
2022-10-12T14:58:15.000Z,15.05
2022-10-12T15:00:42.547Z,14.98
2022-10-12T15:03:09.180Z,14.05
2022-10-12T15:05:35.940Z,13.93
2022-10-12T15:08:08.804Z,14.63
2022-10-12T15:10:37.021Z,16.02
2022-10-12T15:13:23.831Z,14.25
2022-10-12T15:15:52.696Z,13.68
2022-10-12T15:18:19.321Z,14.60
2022-10-12T15:20:49.378Z,14.88
2022-10-12T15:23:16.684Z,14.63
2022-10-12T15:25:56.518Z,13.63
2022-10-12T15:28:23.555Z,15.65
2022-10-12T15:33:40.500Z,15.00
2022-10-12T15:36:10.228Z,14.98
2022-10-12T15:38:37.197Z,14.98
2022-10-12T15:41:04.206Z,15.45
2022-10-12T15:43:33.684Z,14.50
2022-10-12T15:46:02.712Z,15.25
2022-10-12T15:48:30.572Z,16.08
2022-10-12T15:50:57.296Z,15.70
2022-10-12T15:53:25.720Z,19.75
2022-10-12T15:55:53.988Z,17.85
2022-10-12T15:58:20.921Z,15.73
2022-10-12T16:00:48.019Z,17.27
2022-10-12T16:03:25.886Z,16.80
2022-10-12T16:05:53.983Z,17.90
2022-10-12T16:08:20.952Z,16.80
2022-10-12T16:10:48.389Z,16.02
2022-10-12T16:13:16.364Z,15.75
2022-10-12T16:15:44.414Z,16.55
2022-10-12T16:18:11.458Z,16.67
2022-10-12T16:20:39.411Z,16.33
2022-10-12T16:23:18.953Z,18.17
2022-10-12T16:25:45.883Z,17.05
2022-10-12T16:28:12.618Z,15.80
2022-10-12T16:30:41.062Z,17.27
2022-10-12T16:33:10.642Z,17.05
2022-10-12T16:35:40.487Z,16.95
2022-10-12T16:38:09.321Z,16.50
2022-10-12T16:40:39.128Z,17.15
2022-10-12T16:43:06.150Z,18.52
2022-10-12T16:45:36.495Z,19.05
2022-10-12T16:48:03.923Z,17.80
2022-10-12T16:50:30.604Z,18.58
2022-10-12T16:52:57.956Z,18.10
2022-10-12T16:55:24.595Z,17.75
2022-10-12T16:57:51.311Z,17.35
2022-10-12T17:00:20.263Z,17.02
2022-10-12T17:02:48.027Z,17.52
2022-10-12T17:05:14.856Z,17.80
2022-10-12T17:07:41.513Z,17.98
2022-10-12T17:10:08.611Z,17.90
2022-10-12T17:12:35.880Z,25.55
2022-10-12T17:15:02.621Z,18.67
2022-10-12T17:17:29.327Z,20.10
2022-10-12T17:19:56.414Z,17.27
2022-10-12T17:22:23.041Z,17.90
2022-10-12T17:24:49.650Z,17.83
2022-10-12T17:27:16.904Z,16.88
2022-10-12T17:29:44.068Z,22.67
2022-10-12T17:36:09.414Z,18.58
2022-10-12T17:38:36.987Z,18.15
2022-10-12T17:41:05.107Z,17.98
2022-10-12T17:43:32.354Z,18.20
2022-10-12T17:46:02.184Z,18.58
2022-10-12T17:48:30.180Z,20.20
2022-10-12T17:51:02.744Z,19.52
2022-10-12T17:53:29.414Z,19.33
2022-10-12T17:56:01.130Z,19.73
2022-10-12T17:58:28.388Z,19.63
2022-10-12T18:01:03.451Z,20.63
2022-10-12T18:03:30.263Z,18.65
2022-10-12T18:06:03.444Z,18.63
2022-10-12T18:08:30.366Z,18.00
2022-10-12T18:11:00.777Z,18.92
2022-10-12T18:13:28.875Z,17.73
2022-10-12T18:15:55.987Z,18.42
2022-10-12T18:18:22.666Z,17.63
2022-10-12T18:20:49.649Z,18.27
2022-10-12T18:23:16.319Z,18.35
2022-10-12T18:25:43.703Z,18.58
2022-10-12T18:28:11.735Z,23.35
2022-10-12T18:30:45.590Z,19.83
2022-10-12T18:33:12.238Z,19.80
2022-10-12T18:35:38.721Z,19.23
2022-10-12T18:38:05.316Z,42.25
2022-10-12T18:40:36.567Z,19.35
2022-10-12T18:43:06.012Z,18.45
2022-10-12T18:45:35.185Z,20.08
2022-10-12T18:48:06.383Z,19.85
2022-10-12T18:50:35.337Z,20.98
2022-10-12T18:53:01.921Z,22.45
2022-10-12T18:55:28.524Z,22.33
2022-10-12T18:57:55.255Z,21.25
2022-10-12T19:00:26.421Z,20.75
2022-10-12T19:02:52.954Z,20.58
2022-10-12T19:05:19.552Z,21.23
2022-10-12T19:07:45.993Z,20.95
2022-10-12T19:10:12.637Z,20.27
2022-10-12T19:12:43.375Z,20.27
2022-10-12T19:15:12.125Z,21.00
2022-10-12T19:17:38.532Z,70.43
2022-10-12T19:20:05.479Z,21.48
2022-10-12T19:22:31.937Z,23.10
2022-10-12T19:24:59.919Z,25.55
2022-10-12T19:27:26.442Z,32.38
2022-10-12T19:29:52.978Z,27.27
2022-10-12T19:32:19.861Z,22.75
2022-10-12T19:34:50.025Z,21.70
2022-10-12T19:37:16.548Z,23.40
2022-10-12T19:39:45.009Z,24.40
2022-10-12T19:42:11.440Z,24.15
2022-10-12T19:44:38.075Z,21.67
2022-10-12T19:47:04.899Z,23.17
2022-10-12T19:49:36.433Z,23.42
2022-10-12T19:52:03.872Z,23.08
2022-10-12T19:54:34.078Z,28.95
2022-10-12T19:57:05.666Z,23.38
2022-10-12T19:59:32.143Z,21.60
2022-10-12T20:02:01.976Z,21.73
2022-10-12T20:04:30.062Z,22.75
2022-10-12T20:06:56.718Z,22.05
2022-10-12T20:09:23.243Z,21.85
2022-10-12T20:11:50.044Z,21.50
2022-10-12T20:14:18.877Z,20.70
2022-10-12T20:16:45.523Z,22.33
2022-10-12T20:19:12.216Z,21.67
2022-10-12T20:21:38.860Z,21.40
2022-10-12T20:24:11.949Z,21.80
2022-10-12T20:26:38.800Z,25.52
2022-10-12T20:29:05.351Z,21.73
2022-10-12T20:31:31.942Z,21.83
2022-10-12T20:33:58.607Z,21.77
2022-10-12T20:36:28.438Z,21.35
2022-10-12T20:38:55.442Z,26.95
2022-10-12T20:41:23.175Z,21.92
2022-10-12T20:43:49.654Z,22.77
2022-10-12T20:46:18.461Z,20.75
2022-10-12T20:48:45.688Z,22.10
2022-10-12T20:51:28.908Z,21.98
2022-10-12T20:53:59.048Z,21.75
2022-10-12T20:56:27.348Z,20.92
2022-10-12T20:58:55.359Z,21.40
2022-10-12T21:01:23.000Z,21.40
2022-10-12T21:03:49.705Z,20.67
2022-10-12T21:06:17.357Z,20.45
2022-10-12T21:08:43.811Z,20.38
2022-10-12T21:11:11.037Z,21.00
2022-10-12T21:13:42.282Z,20.10
2022-10-12T21:16:13.369Z,20.80
2022-10-12T21:18:41.320Z,20.95
2022-10-12T21:21:12.838Z,19.67
2022-10-12T21:23:41.210Z,20.23
2022-10-12T21:26:12.580Z,19.60
2022-10-12T21:28:39.417Z,20.63
2022-10-12T21:31:06.170Z,20.10
2022-10-12T21:33:35.065Z,19.50
2022-10-12T21:36:07.849Z,20.25
2022-10-12T21:38:34.625Z,19.48
2022-10-12T21:41:01.192Z,19.52
2022-10-12T21:43:27.636Z,18.98
2022-10-12T21:45:56.274Z,20.13
2022-10-12T21:48:22.785Z,18.45
2022-10-12T21:50:49.301Z,18.35
2022-10-12T21:53:15.957Z,17.92
2022-10-12T21:55:42.383Z,18.38
2022-10-12T21:58:08.847Z,19.05
2022-10-12T22:00:35.339Z,18.95
2022-10-12T22:03:02.032Z,18.38
2022-10-12T22:05:28.578Z,19.98
2022-10-12T22:07:57.998Z,20.88
2022-10-12T22:10:24.706Z,21.05
2022-10-12T22:12:51.271Z,19.63
2022-10-12T22:15:17.822Z,18.77
2022-10-12T22:17:44.253Z,20.23
2022-10-12T22:20:11.328Z,19.20
2022-10-12T22:22:38.154Z,18.55
2022-10-12T22:25:05.080Z,19.50
2022-10-12T22:27:31.735Z,19.83
2022-10-12T22:30:01.612Z,19.20
2022-10-12T22:32:28.145Z,19.15
2022-10-12T22:34:54.771Z,18.52
2022-10-12T22:37:22.082Z,19.52
2022-10-12T22:39:48.635Z,19.08
2022-10-12T22:42:15.140Z,20.48
2022-10-12T22:44:41.600Z,20.15
2022-10-12T22:47:08.082Z,19.65
2022-10-12T22:49:34.618Z,18.88
2022-10-12T22:52:01.116Z,20.92
2022-10-12T22:54:27.707Z,20.10
2022-10-12T22:56:54.383Z,19.98
2022-10-12T22:59:20.944Z,21.25
2022-10-12T23:01:47.570Z,19.63
2022-10-12T23:04:14.146Z,22.00
2022-10-12T23:06:40.655Z,21.20
2022-10-12T23:09:07.298Z,20.17
2022-10-12T23:11:33.882Z,21.88
2022-10-12T23:14:00.845Z,21.95
2022-10-12T23:16:30.004Z,21.38
2022-10-12T23:18:59.706Z,20.50
2022-10-12T23:21:27.914Z,20.20
2022-10-12T23:23:54.558Z,21.05
2022-10-12T23:26:23.268Z,21.45
2022-10-12T23:28:50.757Z,20.08
2022-10-12T23:31:22.232Z,19.10
2022-10-12T23:33:48.895Z,20.45
2022-10-12T23:36:17.420Z,20.38
2022-10-12T23:38:44.724Z,20.88
2022-10-12T23:41:12.294Z,20.58
2022-10-12T23:43:38.889Z,19.85
2022-10-12T23:46:05.752Z,19.67
2022-10-12T23:48:33.264Z,19.75
2022-10-12T23:51:00.369Z,19.80
2022-10-12T23:53:27.323Z,19.48
2022-10-12T23:55:54.428Z,19.45
2022-10-12T23:58:21.174Z,19.23
